sensor_id;sensor_type;location;lat;lon;timestamp;temperature;humidity
75824;DHT22;64457;51.976;9.834;2024-01-30T00:02:23;7.80;98.00
75824;DHT22;64457;51.976;9.834;2024-01-30T00:04:51;7.80;98.50
75824;DHT22;64457;51.976;9.834;2024-01-30T00:07:19;7.80;98.40
75824;DHT22;64457;51.976;9.834;2024-01-30T00:09:47;7.90;98.50
75824;DHT22;64457;51.976;9.834;2024-01-30T00:12:16;7.80;98.60
75824;DHT22;64457;51.976;9.834;2024-01-30T00:14:54;7.60;98.70
75824;DHT22;64457;51.976;9.834;2024-01-30T00:17:22;7.60;98.90
75824;DHT22;64457;51.976;9.834;2024-01-30T00:19:51;7.70;98.50
75824;DHT22;64457;51.976;9.834;2024-01-30T00:22:19;7.80;98.40
75824;DHT22;64457;51.976;9.834;2024-01-30T00:24:46;7.80;98.70
75824;DHT22;64457;51.976;9.834;2024-01-30T00:27:16;7.80;98.40
75824;DHT22;64457;51.976;9.834;2024-01-30T00:29:44;7.80;98.50
75824;DHT22;64457;51.976;9.834;2024-01-30T00:32:21;7.80;98.50
75824;DHT22;64457;51.976;9.834;2024-01-30T00:34:49;7.90;98.60
75824;DHT22;64457;51.976;9.834;2024-01-30T00:37:17;8.00;98.00
75824;DHT22;64457;51.976;9.834;2024-01-30T00:39:44;7.90;98.00
75824;DHT22;64457;51.976;9.834;2024-01-30T00:42:12;7.70;98.70
75824;DHT22;64457;51.976;9.834;2024-01-30T00:44:43;7.80;98.20
75824;DHT22;64457;51.976;9.834;2024-01-30T00:47:12;7.90;98.20
75824;DHT22;64457;51.976;9.834;2024-01-30T00:49:40;7.90;98.30
75824;DHT22;64457;51.976;9.834;2024-01-30T00:52:07;8.00;98.30
75824;DHT22;64457;51.976;9.834;2024-01-30T00:54:35;8.10;98.30
75824;DHT22;64457;51.976;9.834;2024-01-30T00:57:03;7.80;98.70
75824;DHT22;64457;51.976;9.834;2024-01-30T00:59:31;7.80;98.80
75824;DHT22;64457;51.976;9.834;2024-01-30T01:01:58;7.80;98.40
75824;DHT22;64457;51.976;9.834;2024-01-30T01:04:27;7.90;98.20
75824;DHT22;64457;51.976;9.834;2024-01-30T01:06:54;8.10;98.60
75824;DHT22;64457;51.976;9.834;2024-01-30T01:09:22;8.00;98.40
75824;DHT22;64457;51.976;9.834;2024-01-30T01:11:50;7.90;98.40
75824;DHT22;64457;51.976;9.834;2024-01-30T01:14:20;7.90;98.50
75824;DHT22;64457;51.976;9.834;2024-01-30T01:16:48;8.00;98.10
75824;DHT22;64457;51.976;9.834;2024-01-30T01:19:15;8.00;98.10
75824;DHT22;64457;51.976;9.834;2024-01-30T01:21:44;7.90;98.10
75824;DHT22;64457;51.976;9.834;2024-01-30T01:24:14;7.90;98.00
75824;DHT22;64457;51.976;9.834;2024-01-30T01:26:44;7.80;98.10
75824;DHT22;64457;51.976;9.834;2024-01-30T01:29:12;7.80;98.40
75824;DHT22;64457;51.976;9.834;2024-01-30T01:31:41;7.80;98.40
75824;DHT22;64457;51.976;9.834;2024-01-30T01:34:09;7.80;98.20
75824;DHT22;64457;51.976;9.834;2024-01-30T01:36:36;8.00;97.90
75824;DHT22;64457;51.976;9.834;2024-01-30T01:39:05;8.00;97.90
75824;DHT22;64457;51.976;9.834;2024-01-30T01:41:33;8.00;97.50
75824;DHT22;64457;51.976;9.834;2024-01-30T01:44:01;8.00;97.90
75824;DHT22;64457;51.976;9.834;2024-01-30T01:46:30;8.10;98.50
75824;DHT22;64457;51.976;9.834;2024-01-30T01:49:02;7.90;98.40
75824;DHT22;64457;51.976;9.834;2024-01-30T01:51:32;7.90;98.40
75824;DHT22;64457;51.976;9.834;2024-01-30T01:54:03;7.70;98.50
75824;DHT22;64457;51.976;9.834;2024-01-30T01:56:33;7.50;98.90
75824;DHT22;64457;51.976;9.834;2024-01-30T01:59:06;7.50;99.30
75824;DHT22;64457;51.976;9.834;2024-01-30T02:01:33;7.60;99.20
75824;DHT22;64457;51.976;9.834;2024-01-30T02:07:15;7.80;98.70
75824;DHT22;64457;51.976;9.834;2024-01-30T02:09:44;7.80;98.30
75824;DHT22;64457;51.976;9.834;2024-01-30T02:12:11;8.00;98.20
75824;DHT22;64457;51.976;9.834;2024-01-30T02:14:44;7.50;98.70
75824;DHT22;64457;51.976;9.834;2024-01-30T02:17:12;7.60;98.90
75824;DHT22;64457;51.976;9.834;2024-01-30T02:19:40;7.50;98.60
75824;DHT22;64457;51.976;9.834;2024-01-30T02:22:09;7.50;98.80
75824;DHT22;64457;51.976;9.834;2024-01-30T02:24:37;7.40;98.80
75824;DHT22;64457;51.976;9.834;2024-01-30T02:27:04;7.60;98.70
75824;DHT22;64457;51.976;9.834;2024-01-30T02:29:32;7.60;98.90
75824;DHT22;64457;51.976;9.834;2024-01-30T02:31:59;7.60;98.90
75824;DHT22;64457;51.976;9.834;2024-01-30T02:34:26;7.50;98.60
75824;DHT22;64457;51.976;9.834;2024-01-30T02:36:54;7.70;98.40
75824;DHT22;64457;51.976;9.834;2024-01-30T02:39:22;7.70;98.60
75824;DHT22;64457;51.976;9.834;2024-01-30T02:41:50;7.70;98.50
75824;DHT22;64457;51.976;9.834;2024-01-30T02:44:17;7.70;98.30
75824;DHT22;64457;51.976;9.834;2024-01-30T02:46:45;7.50;98.80
75824;DHT22;64457;51.976;9.834;2024-01-30T02:49:13;7.50;98.70
75824;DHT22;64457;51.976;9.834;2024-01-30T02:51:40;7.50;98.80
75824;DHT22;64457;51.976;9.834;2024-01-30T02:54:07;7.80;98.50
75824;DHT22;64457;51.976;9.834;2024-01-30T02:56:36;7.60;98.10
75824;DHT22;64457;51.976;9.834;2024-01-30T02:59:03;7.60;98.40
75824;DHT22;64457;51.976;9.834;2024-01-30T03:01:31;7.60;98.40
75824;DHT22;64457;51.976;9.834;2024-01-30T03:03:58;7.60;98.40
75824;DHT22;64457;51.976;9.834;2024-01-30T03:06:26;7.50;98.50
75824;DHT22;64457;51.976;9.834;2024-01-30T03:08:53;7.50;98.40
75824;DHT22;64457;51.976;9.834;2024-01-30T03:11:20;7.50;98.40
75824;DHT22;64457;51.976;9.834;2024-01-30T03:13:49;7.40;98.90
75824;DHT22;64457;51.976;9.834;2024-01-30T03:16:17;7.30;99.00
75824;DHT22;64457;51.976;9.834;2024-01-30T03:18:44;7.30;99.20
75824;DHT22;64457;51.976;9.834;2024-01-30T03:21:11;7.40;99.00
75824;DHT22;64457;51.976;9.834;2024-01-30T03:23:42;7.60;98.80
75824;DHT22;64457;51.976;9.834;2024-01-30T03:26:09;7.70;98.10
75824;DHT22;64457;51.976;9.834;2024-01-30T03:28:38;7.60;98.50
75824;DHT22;64457;51.976;9.834;2024-01-30T03:31:06;7.60;98.50
75824;DHT22;64457;51.976;9.834;2024-01-30T03:33:34;7.50;98.40
75824;DHT22;64457;51.976;9.834;2024-01-30T03:36:10;7.50;98.60
75824;DHT22;64457;51.976;9.834;2024-01-30T03:38:37;7.50;98.80
75824;DHT22;64457;51.976;9.834;2024-01-30T03:41:08;7.40;99.00
75824;DHT22;64457;51.976;9.834;2024-01-30T03:43:38;7.60;99.00
75824;DHT22;64457;51.976;9.834;2024-01-30T03:46:07;7.60;99.00
75824;DHT22;64457;51.976;9.834;2024-01-30T03:48:35;7.50;99.30
75824;DHT22;64457;51.976;9.834;2024-01-30T03:51:03;7.40;99.80
75824;DHT22;64457;51.976;9.834;2024-01-30T03:53:31;7.40;99.80
75824;DHT22;64457;51.976;9.834;2024-01-30T03:55:58;7.40;99.80
75824;DHT22;64457;51.976;9.834;2024-01-30T03:58:26;7.70;99.80
75824;DHT22;64457;51.976;9.834;2024-01-30T04:00:53;7.90;99.30
75824;DHT22;64457;51.976;9.834;2024-01-30T04:03:22;8.10;98.90
75824;DHT22;64457;51.976;9.834;2024-01-30T04:05:51;8.10;98.60
75824;DHT22;64457;51.976;9.834;2024-01-30T04:08:19;8.20;98.50
75824;DHT22;64457;51.976;9.834;2024-01-30T04:10:47;8.20;98.90
75824;DHT22;64457;51.976;9.834;2024-01-30T04:13:14;8.30;98.80
75824;DHT22;64457;51.976;9.834;2024-01-30T04:15:42;8.40;98.70
75824;DHT22;64457;51.976;9.834;2024-01-30T04:18:09;8.40;98.30
75824;DHT22;64457;51.976;9.834;2024-01-30T04:20:38;8.30;98.40
75824;DHT22;64457;51.976;9.834;2024-01-30T04:23:05;8.30;98.60
75824;DHT22;64457;51.976;9.834;2024-01-30T04:25:33;8.40;98.50
75824;DHT22;64457;51.976;9.834;2024-01-30T04:28:00;8.40;98.00
75824;DHT22;64457;51.976;9.834;2024-01-30T04:30:28;8.40;98.30
75824;DHT22;64457;51.976;9.834;2024-01-30T04:32:55;8.50;98.70
75824;DHT22;64457;51.976;9.834;2024-01-30T04:35:22;8.70;98.50
75824;DHT22;64457;51.976;9.834;2024-01-30T04:37:53;8.70;98.20
75824;DHT22;64457;51.976;9.834;2024-01-30T04:40:21;8.70;98.50
75824;DHT22;64457;51.976;9.834;2024-01-30T04:42:48;8.70;98.40
75824;DHT22;64457;51.976;9.834;2024-01-30T04:45:18;8.80;98.40
75824;DHT22;64457;51.976;9.834;2024-01-30T04:47:47;8.90;98.00
75824;DHT22;64457;51.976;9.834;2024-01-30T04:50:15;8.70;98.60
75824;DHT22;64457;51.976;9.834;2024-01-30T04:52:42;8.60;98.60
75824;DHT22;64457;51.976;9.834;2024-01-30T04:55:11;8.70;98.40
75824;DHT22;64457;51.976;9.834;2024-01-30T04:57:39;8.60;98.40
75824;DHT22;64457;51.976;9.834;2024-01-30T05:00:07;8.40;98.70
75824;DHT22;64457;51.976;9.834;2024-01-30T05:02:35;8.40;98.50
75824;DHT22;64457;51.976;9.834;2024-01-30T05:05:03;8.70;98.30
75824;DHT22;64457;51.976;9.834;2024-01-30T05:07:31;8.90;97.70
75824;DHT22;64457;51.976;9.834;2024-01-30T05:09:59;8.70;97.80
75824;DHT22;64457;51.976;9.834;2024-01-30T05:12:28;8.70;97.70
75824;DHT22;64457;51.976;9.834;2024-01-30T05:14:55;8.80;97.70
75824;DHT22;64457;51.976;9.834;2024-01-30T05:17:23;8.90;97.40
75824;DHT22;64457;51.976;9.834;2024-01-30T05:19:58;8.60;97.60
75824;DHT22;64457;51.976;9.834;2024-01-30T05:22:25;8.10;98.60
75824;DHT22;64457;51.976;9.834;2024-01-30T05:24:58;8.20;98.70
75824;DHT22;64457;51.976;9.834;2024-01-30T05:27:25;8.30;98.70
75824;DHT22;64457;51.976;9.834;2024-01-30T05:29:54;8.50;98.20
75824;DHT22;64457;51.976;9.834;2024-01-30T05:32:21;8.50;98.20
75824;DHT22;64457;51.976;9.834;2024-01-30T05:34:49;8.40;98.40
75824;DHT22;64457;51.976;9.834;2024-01-30T05:37:16;8.30;98.40
75824;DHT22;64457;51.976;9.834;2024-01-30T05:39:44;8.40;98.50
75824;DHT22;64457;51.976;9.834;2024-01-30T05:42:11;8.80;98.20
75824;DHT22;64457;51.976;9.834;2024-01-30T05:44:39;8.70;97.70
75824;DHT22;64457;51.976;9.834;2024-01-30T05:47:08;8.90;97.50
75824;DHT22;64457;51.976;9.834;2024-01-30T05:49:35;8.90;97.00
75824;DHT22;64457;51.976;9.834;2024-01-30T05:52:05;8.90;96.90
75824;DHT22;64457;51.976;9.834;2024-01-30T05:54:34;8.90;96.90
75824;DHT22;64457;51.976;9.834;2024-01-30T05:57:02;8.80;96.70
75824;DHT22;64457;51.976;9.834;2024-01-30T05:59:30;8.80;97.30
75824;DHT22;64457;51.976;9.834;2024-01-30T06:01:58;8.70;97.30
75824;DHT22;64457;51.976;9.834;2024-01-30T06:04:27;8.70;97.80
75824;DHT22;64457;51.976;9.834;2024-01-30T06:06:54;8.50;97.80
75824;DHT22;64457;51.976;9.834;2024-01-30T06:09:21;8.50;98.10
75824;DHT22;64457;51.976;9.834;2024-01-30T06:11:49;8.40;98.10
75824;DHT22;64457;51.976;9.834;2024-01-30T06:14:16;8.40;98.10
75824;DHT22;64457;51.976;9.834;2024-01-30T06:16:47;8.60;97.90
75824;DHT22;64457;51.976;9.834;2024-01-30T06:19:14;8.70;97.20
75824;DHT22;64457;51.976;9.834;2024-01-30T06:21:43;8.60;97.30
75824;DHT22;64457;51.976;9.834;2024-01-30T06:24:11;8.40;97.80
75824;DHT22;64457;51.976;9.834;2024-01-30T06:26:38;8.30;97.90
75824;DHT22;64457;51.976;9.834;2024-01-30T06:29:06;8.20;98.20
75824;DHT22;64457;51.976;9.834;2024-01-30T06:31:40;8.20;98.20
75824;DHT22;64457;51.976;9.834;2024-01-30T06:34:08;8.10;98.80
75824;DHT22;64457;51.976;9.834;2024-01-30T06:36:37;8.00;98.50
75824;DHT22;64457;51.976;9.834;2024-01-30T06:39:06;8.00;98.50
75824;DHT22;64457;51.976;9.834;2024-01-30T06:41:33;8.10;98.30
75824;DHT22;64457;51.976;9.834;2024-01-30T06:44:02;8.20;97.90
75824;DHT22;64457;51.976;9.834;2024-01-30T06:46:32;8.30;97.70
75824;DHT22;64457;51.976;9.834;2024-01-30T06:49:00;8.00;98.30
75824;DHT22;64457;51.976;9.834;2024-01-30T06:51:27;8.10;98.30
75824;DHT22;64457;51.976;9.834;2024-01-30T06:53:55;8.10;98.30
75824;DHT22;64457;51.976;9.834;2024-01-30T06:56:23;8.30;97.90
75824;DHT22;64457;51.976;9.834;2024-01-30T06:58:51;8.20;97.70
75824;DHT22;64457;51.976;9.834;2024-01-30T07:01:18;7.90;98.10
75824;DHT22;64457;51.976;9.834;2024-01-30T07:03:46;8.20;98.00
75824;DHT22;64457;51.976;9.834;2024-01-30T07:06:20;8.20;97.90
75824;DHT22;64457;51.976;9.834;2024-01-30T07:08:49;8.20;98.00
75824;DHT22;64457;51.976;9.834;2024-01-30T07:11:19;8.00;98.50
75824;DHT22;64457;51.976;9.834;2024-01-30T07:13:49;7.80;98.60
75824;DHT22;64457;51.976;9.834;2024-01-30T07:16:17;7.90;98.70
75824;DHT22;64457;51.976;9.834;2024-01-30T07:18:45;8.10;98.30
75824;DHT22;64457;51.976;9.834;2024-01-30T07:21:12;8.30;97.70
75824;DHT22;64457;51.976;9.834;2024-01-30T07:23:40;8.40;97.60
75824;DHT22;64457;51.976;9.834;2024-01-30T07:26:08;8.30;97.90
75824;DHT22;64457;51.976;9.834;2024-01-30T07:28:35;8.20;98.00
75824;DHT22;64457;51.976;9.834;2024-01-30T07:31:04;8.10;98.30
75824;DHT22;64457;51.976;9.834;2024-01-30T07:33:32;8.20;98.30
75824;DHT22;64457;51.976;9.834;2024-01-30T07:35:59;8.20;98.20
75824;DHT22;64457;51.976;9.834;2024-01-30T07:38:26;8.30;98.20
75824;DHT22;64457;51.976;9.834;2024-01-30T07:40:54;8.50;97.90
75824;DHT22;64457;51.976;9.834;2024-01-30T07:43:21;8.70;97.60
75824;DHT22;64457;51.976;9.834;2024-01-30T07:45:49;8.90;97.40
75824;DHT22;64457;51.976;9.834;2024-01-30T07:48:18;9.00;97.20
75824;DHT22;64457;51.976;9.834;2024-01-30T07:50:45;9.10;97.20
75824;DHT22;64457;51.976;9.834;2024-01-30T07:53:12;9.20;97.30
75824;DHT22;64457;51.976;9.834;2024-01-30T07:55:40;9.30;97.20
75824;DHT22;64457;51.976;9.834;2024-01-30T07:58:09;9.40;96.90
75824;DHT22;64457;51.976;9.834;2024-01-30T08:00:36;9.60;96.60
75824;DHT22;64457;51.976;9.834;2024-01-30T08:03:04;9.70;96.50
75824;DHT22;64457;51.976;9.834;2024-01-30T08:05:33;9.80;96.40
75824;DHT22;64457;51.976;9.834;2024-01-30T08:08:00;9.60;96.50
75824;DHT22;64457;51.976;9.834;2024-01-30T08:10:28;9.70;96.70
75824;DHT22;64457;51.976;9.834;2024-01-30T08:12:55;9.30;96.50
75824;DHT22;64457;51.976;9.834;2024-01-30T08:15:22;9.20;97.40
75824;DHT22;64457;51.976;9.834;2024-01-30T08:17:50;9.30;97.30
75824;DHT22;64457;51.976;9.834;2024-01-30T08:20:21;9.50;97.00
75824;DHT22;64457;51.976;9.834;2024-01-30T08:22:50;9.70;96.60
75824;DHT22;64457;51.976;9.834;2024-01-30T08:25:17;9.80;96.00
75824;DHT22;64457;51.976;9.834;2024-01-30T08:27:45;9.70;96.30
75824;DHT22;64457;51.976;9.834;2024-01-30T08:30:12;9.80;96.40
75824;DHT22;64457;51.976;9.834;2024-01-30T08:32:40;9.70;96.00
75824;DHT22;64457;51.976;9.834;2024-01-30T08:35:08;9.70;96.30
75824;DHT22;64457;51.976;9.834;2024-01-30T08:37:35;9.60;96.40
75824;DHT22;64457;51.976;9.834;2024-01-30T08:40:05;9.70;96.70
75824;DHT22;64457;51.976;9.834;2024-01-30T08:42:34;10.10;95.60
75824;DHT22;64457;51.976;9.834;2024-01-30T08:45:02;9.90;95.60
75824;DHT22;64457;51.976;9.834;2024-01-30T08:47:30;9.70;95.90
75824;DHT22;64457;51.976;9.834;2024-01-30T08:49:58;9.50;96.50
75824;DHT22;64457;51.976;9.834;2024-01-30T08:52:27;9.60;96.80
75824;DHT22;64457;51.976;9.834;2024-01-30T08:54:56;9.80;96.30
75824;DHT22;64457;51.976;9.834;2024-01-30T08:57:24;9.80;96.40
75824;DHT22;64457;51.976;9.834;2024-01-30T08:59:54;10.00;95.50
75824;DHT22;64457;51.976;9.834;2024-01-30T09:02:21;9.90;96.00
75824;DHT22;64457;51.976;9.834;2024-01-30T09:04:48;9.80;96.40
75824;DHT22;64457;51.976;9.834;2024-01-30T09:07:16;10.30;95.90
75824;DHT22;64457;51.976;9.834;2024-01-30T09:09:43;10.70;94.90
75824;DHT22;64457;51.976;9.834;2024-01-30T09:12:10;10.60;94.60
75824;DHT22;64457;51.976;9.834;2024-01-30T09:14:39;10.80;94.50
75824;DHT22;64457;51.976;9.834;2024-01-30T09:17:07;11.10;94.30
75824;DHT22;64457;51.976;9.834;2024-01-30T09:19:35;11.30;93.80
75824;DHT22;64457;51.976;9.834;2024-01-30T09:22:02;11.50;93.20
75824;DHT22;64457;51.976;9.834;2024-01-30T09:24:32;11.40;93.30
75824;DHT22;64457;51.976;9.834;2024-01-30T09:27:00;11.30;93.80
75824;DHT22;64457;51.976;9.834;2024-01-30T09:29:29;11.70;93.30
75824;DHT22;64457;51.976;9.834;2024-01-30T09:31:57;11.80;93.00
75824;DHT22;64457;51.976;9.834;2024-01-30T09:34:25;12.10;92.70
75824;DHT22;64457;51.976;9.834;2024-01-30T09:36:52;12.20;92.50
75824;DHT22;64457;51.976;9.834;2024-01-30T09:39:19;12.10;92.10
75824;DHT22;64457;51.976;9.834;2024-01-30T09:41:49;11.90;92.50
75824;DHT22;64457;51.976;9.834;2024-01-30T09:44:23;11.60;93.10
75824;DHT22;64457;51.976;9.834;2024-01-30T09:46:53;11.40;93.40
75824;DHT22;64457;51.976;9.834;2024-01-30T09:49:22;11.60;93.10
75824;DHT22;64457;51.976;9.834;2024-01-30T09:51:50;11.50;92.90
75824;DHT22;64457;51.976;9.834;2024-01-30T09:54:20;11.60;92.80
75824;DHT22;64457;51.976;9.834;2024-01-30T09:56:48;11.70;93.00
75824;DHT22;64457;51.976;9.834;2024-01-30T09:59:15;11.70;93.00
75824;DHT22;64457;51.976;9.834;2024-01-30T10:01:43;11.80;92.80
75824;DHT22;64457;51.976;9.834;2024-01-30T10:04:11;12.10;92.80
75824;DHT22;64457;51.976;9.834;2024-01-30T10:06:42;12.50;92.00
75824;DHT22;64457;51.976;9.834;2024-01-30T10:09:09;12.50;92.10
75824;DHT22;64457;51.976;9.834;2024-01-30T10:11:36;12.70;92.10
75824;DHT22;64457;51.976;9.834;2024-01-30T10:14:03;12.70;91.70
75824;DHT22;64457;51.976;9.834;2024-01-30T10:16:31;12.70;91.70
75824;DHT22;64457;51.976;9.834;2024-01-30T10:19:00;12.60;91.30
75824;DHT22;64457;51.976;9.834;2024-01-30T10:21:29;12.60;91.70
75824;DHT22;64457;51.976;9.834;2024-01-30T10:24:01;12.90;91.60
75824;DHT22;64457;51.976;9.834;2024-01-30T10:26:28;12.70;91.90
75824;DHT22;64457;51.976;9.834;2024-01-30T10:28:59;12.60;91.90
75824;DHT22;64457;51.976;9.834;2024-01-30T10:31:28;12.60;91.80
75824;DHT22;64457;51.976;9.834;2024-01-30T10:33:55;12.50;91.80
75824;DHT22;64457;51.976;9.834;2024-01-30T10:36:28;12.20;92.30
75824;DHT22;64457;51.976;9.834;2024-01-30T10:38:57;12.20;92.60
75824;DHT22;64457;51.976;9.834;2024-01-30T10:41:27;12.30;92.40
75824;DHT22;64457;51.976;9.834;2024-01-30T10:44:02;12.40;92.20
75824;DHT22;64457;51.976;9.834;2024-01-30T10:46:37;12.50;92.50
75824;DHT22;64457;51.976;9.834;2024-01-30T10:49:05;12.50;92.40
75824;DHT22;64457;51.976;9.834;2024-01-30T10:51:34;12.70;92.30
75824;DHT22;64457;51.976;9.834;2024-01-30T10:54:06;13.10;91.90
75824;DHT22;64457;51.976;9.834;2024-01-30T10:56:35;13.10;91.70
75824;DHT22;64457;51.976;9.834;2024-01-30T10:59:02;13.20;91.40
75824;DHT22;64457;51.976;9.834;2024-01-30T11:01:30;13.00;91.50
75824;DHT22;64457;51.976;9.834;2024-01-30T11:03:58;13.00;91.60
75824;DHT22;64457;51.976;9.834;2024-01-30T11:06:25;13.00;91.90
75824;DHT22;64457;51.976;9.834;2024-01-30T11:09:02;13.10;91.80
75824;DHT22;64457;51.976;9.834;2024-01-30T11:11:48;13.10;92.00
75824;DHT22;64457;51.976;9.834;2024-01-30T11:14:16;12.70;92.30
75824;DHT22;64457;51.976;9.834;2024-01-30T11:16:43;12.80;92.30
75824;DHT22;64457;51.976;9.834;2024-01-30T11:19:11;12.50;92.10
75824;DHT22;64457;51.976;9.834;2024-01-30T11:21:41;12.10;93.00
75824;DHT22;64457;51.976;9.834;2024-01-30T11:24:14;12.30;93.30
75824;DHT22;64457;51.976;9.834;2024-01-30T11:26:42;12.80;92.90
75824;DHT22;64457;51.976;9.834;2024-01-30T11:29:09;13.30;92.00
75824;DHT22;64457;51.976;9.834;2024-01-30T11:31:51;13.50;91.40
75824;DHT22;64457;51.976;9.834;2024-01-30T11:34:18;13.30;91.90
75824;DHT22;64457;51.976;9.834;2024-01-30T11:36:51;13.60;91.90
75824;DHT22;64457;51.976;9.834;2024-01-30T11:39:23;13.50;91.70
75824;DHT22;64457;51.976;9.834;2024-01-30T11:41:52;13.40;91.30
75824;DHT22;64457;51.976;9.834;2024-01-30T11:44:20;13.60;91.70
75824;DHT22;64457;51.976;9.834;2024-01-30T11:46:47;13.80;91.20
75824;DHT22;64457;51.976;9.834;2024-01-30T11:49:16;14.00;91.00
75824;DHT22;64457;51.976;9.834;2024-01-30T11:51:45;13.90;91.00
75824;DHT22;64457;51.976;9.834;2024-01-30T11:54:14;13.30;91.30
75824;DHT22;64457;51.976;9.834;2024-01-30T11:56:43;12.70;92.30
75824;DHT22;64457;51.976;9.834;2024-01-30T11:59:11;12.90;92.40
75824;DHT22;64457;51.976;9.834;2024-01-30T12:01:38;13.20;92.00
75824;DHT22;64457;51.976;9.834;2024-01-30T12:04:05;13.40;91.80
75824;DHT22;64457;51.976;9.834;2024-01-30T12:06:34;13.30;91.50
75824;DHT22;64457;51.976;9.834;2024-01-30T12:09:02;13.30;91.60
75824;DHT22;64457;51.976;9.834;2024-01-30T12:11:31;13.20;91.80
75824;DHT22;64457;51.976;9.834;2024-01-30T12:13:59;13.20;92.00
75824;DHT22;64457;51.976;9.834;2024-01-30T12:16:27;13.00;92.10
75824;DHT22;64457;51.976;9.834;2024-01-30T12:19:00;13.10;92.40
75824;DHT22;64457;51.976;9.834;2024-01-30T12:21:29;12.90;92.40
75824;DHT22;64457;51.976;9.834;2024-01-30T12:23:56;12.90;92.80
75824;DHT22;64457;51.976;9.834;2024-01-30T12:26:24;13.20;92.70
75824;DHT22;64457;51.976;9.834;2024-01-30T12:28:55;13.60;92.10
75824;DHT22;64457;51.976;9.834;2024-01-30T12:31:28;13.90;91.70
75824;DHT22;64457;51.976;9.834;2024-01-30T12:33:55;14.10;91.50
75824;DHT22;64457;51.976;9.834;2024-01-30T12:36:22;14.30;91.30
75824;DHT22;64457;51.976;9.834;2024-01-30T12:38:50;14.30;91.40
75824;DHT22;64457;51.976;9.834;2024-01-30T12:41:17;14.60;91.10
75824;DHT22;64457;51.976;9.834;2024-01-30T12:43:46;14.60;91.00
75824;DHT22;64457;51.976;9.834;2024-01-30T12:46:17;14.60;90.70
75824;DHT22;64457;51.976;9.834;2024-01-30T12:48:45;14.70;90.90
75824;DHT22;64457;51.976;9.834;2024-01-30T12:51:17;14.60;90.40
75824;DHT22;64457;51.976;9.834;2024-01-30T12:53:44;14.40;91.00
75824;DHT22;64457;51.976;9.834;2024-01-30T12:56:12;14.30;91.10
75824;DHT22;64457;51.976;9.834;2024-01-30T12:58:40;14.00;91.30
75824;DHT22;64457;51.976;9.834;2024-01-30T13:01:09;13.90;91.60
75824;DHT22;64457;51.976;9.834;2024-01-30T13:03:36;14.00;91.80
75824;DHT22;64457;51.976;9.834;2024-01-30T13:06:05;14.20;91.50
75824;DHT22;64457;51.976;9.834;2024-01-30T13:08:33;14.30;91.60
75824;DHT22;64457;51.976;9.834;2024-01-30T13:11:00;14.40;91.30
75824;DHT22;64457;51.976;9.834;2024-01-30T13:13:27;14.70;91.70
75824;DHT22;64457;51.976;9.834;2024-01-30T13:15:55;14.70;90.60
75824;DHT22;64457;51.976;9.834;2024-01-30T13:18:22;14.60;90.80
75824;DHT22;64457;51.976;9.834;2024-01-30T13:20:49;14.60;91.00
75824;DHT22;64457;51.976;9.834;2024-01-30T13:23:18;14.30;91.10
75824;DHT22;64457;51.976;9.834;2024-01-30T13:25:45;14.40;91.10
75824;DHT22;64457;51.976;9.834;2024-01-30T13:28:12;14.50;91.00
75824;DHT22;64457;51.976;9.834;2024-01-30T13:30:39;14.40;91.20
75824;DHT22;64457;51.976;9.834;2024-01-30T13:33:06;14.40;91.20
75824;DHT22;64457;51.976;9.834;2024-01-30T13:35:34;14.50;91.10
75824;DHT22;64457;51.976;9.834;2024-01-30T13:38:01;14.50;91.20
75824;DHT22;64457;51.976;9.834;2024-01-30T13:40:30;14.80;91.00
75824;DHT22;64457;51.976;9.834;2024-01-30T13:42:57;14.50;90.60
75824;DHT22;64457;51.976;9.834;2024-01-30T13:45:24;14.20;91.20
75824;DHT22;64457;51.976;9.834;2024-01-30T13:47:51;14.10;91.40
75824;DHT22;64457;51.976;9.834;2024-01-30T13:50:19;14.10;91.40
75824;DHT22;64457;51.976;9.834;2024-01-30T13:52:48;13.90;91.70
75824;DHT22;64457;51.976;9.834;2024-01-30T13:55:15;13.90;92.00
75824;DHT22;64457;51.976;9.834;2024-01-30T13:57:44;13.60;92.10
75824;DHT22;64457;51.976;9.834;2024-01-30T14:00:12;13.70;92.30
75824;DHT22;64457;51.976;9.834;2024-01-30T14:02:41;13.90;92.10
75824;DHT22;64457;51.976;9.834;2024-01-30T14:05:09;14.20;91.80
75824;DHT22;64457;51.976;9.834;2024-01-30T14:07:37;14.10;91.50
75824;DHT22;64457;51.976;9.834;2024-01-30T14:10:07;14.00;91.80
75824;DHT22;64457;51.976;9.834;2024-01-30T14:12:34;14.00;92.00
75824;DHT22;64457;51.976;9.834;2024-01-30T14:15:03;14.10;91.80
75824;DHT22;64457;51.976;9.834;2024-01-30T14:17:30;14.00;91.70
75824;DHT22;64457;51.976;9.834;2024-01-30T14:19:58;13.80;92.20
75824;DHT22;64457;51.976;9.834;2024-01-30T14:22:25;13.90;92.30
75824;DHT22;64457;51.976;9.834;2024-01-30T14:24:52;13.90;92.00
75824;DHT22;64457;51.976;9.834;2024-01-30T14:27:19;13.80;92.50
75824;DHT22;64457;51.976;9.834;2024-01-30T14:29:48;13.90;92.10
75824;DHT22;64457;51.976;9.834;2024-01-30T14:32:17;14.10;92.30
75824;DHT22;64457;51.976;9.834;2024-01-30T14:34:44;14.00;91.90
75824;DHT22;64457;51.976;9.834;2024-01-30T14:37:11;13.80;92.20
75824;DHT22;64457;51.976;9.834;2024-01-30T14:39:39;13.80;92.20
75824;DHT22;64457;51.976;9.834;2024-01-30T14:42:06;13.50;92.50
75824;DHT22;64457;51.976;9.834;2024-01-30T14:44:34;13.40;92.80
75824;DHT22;64457;51.976;9.834;2024-01-30T14:47:01;13.30;93.00
75824;DHT22;64457;51.976;9.834;2024-01-30T14:49:30;13.30;93.20
75824;DHT22;64457;51.976;9.834;2024-01-30T14:52:01;13.40;93.20
75824;DHT22;64457;51.976;9.834;2024-01-30T14:54:30;13.60;93.00
75824;DHT22;64457;51.976;9.834;2024-01-30T14:56:57;13.70;92.50
75824;DHT22;64457;51.976;9.834;2024-01-30T14:59:26;13.70;92.80
75824;DHT22;64457;51.976;9.834;2024-01-30T15:01:54;13.30;93.00
75824;DHT22;64457;51.976;9.834;2024-01-30T15:04:21;13.30;93.30
75824;DHT22;64457;51.976;9.834;2024-01-30T15:06:50;13.50;93.20
75824;DHT22;64457;51.976;9.834;2024-01-30T15:09:18;13.60;93.00
75824;DHT22;64457;51.976;9.834;2024-01-30T15:11:47;13.70;92.70
75824;DHT22;64457;51.976;9.834;2024-01-30T15:14:14;13.80;92.70
75824;DHT22;64457;51.976;9.834;2024-01-30T15:16:42;13.70;92.70
75824;DHT22;64457;51.976;9.834;2024-01-30T15:19:10;13.70;92.70
75824;DHT22;64457;51.976;9.834;2024-01-30T15:21:38;13.70;93.00
75824;DHT22;64457;51.976;9.834;2024-01-30T15:24:07;13.70;93.00
75824;DHT22;64457;51.976;9.834;2024-01-30T15:26:34;13.90;92.70
75824;DHT22;64457;51.976;9.834;2024-01-30T15:29:02;13.90;92.70
75824;DHT22;64457;51.976;9.834;2024-01-30T15:31:30;13.80;92.90
75824;DHT22;64457;51.976;9.834;2024-01-30T15:33:58;13.90;92.80
75824;DHT22;64457;51.976;9.834;2024-01-30T15:36:25;14.00;92.50
75824;DHT22;64457;51.976;9.834;2024-01-30T15:38:52;14.10;92.50
75824;DHT22;64457;51.976;9.834;2024-01-30T15:41:21;14.20;92.40
75824;DHT22;64457;51.976;9.834;2024-01-30T15:43:48;14.30;92.30
75824;DHT22;64457;51.976;9.834;2024-01-30T15:46:17;14.20;92.20
75824;DHT22;64457;51.976;9.834;2024-01-30T15:48:44;14.10;92.60
75824;DHT22;64457;51.976;9.834;2024-01-30T15:51:12;14.10;92.90